<?xml version="1.0" encoding="UTF-8" standalone="no" ?>
<gpx xmlns="http://www.topografix.com/GPX/1/1" xmlns:xsi="http://www.w3.org/2001/XMLSchema-instance" xsi:schemaLocation="http://www.topografix.com/GPX/1/1 http://www.topografix.com/GPX/1/1/gpx.xsd" version="1.1" creator="VisuGPX - https://www.visugpx.com">
  <metadata>
    <name>Pic du Tourroc 1541m (65)</name>
    <desc><![CDATA[Randonnée avec le club Muret-Montagne le 10/04/11.
Par temps clair, la vue doit y être magnifique...
Ce fut une excellente journée malgré le froid et le brouillard!]]></desc>
  </metadata>
  <trk>
    <name><![CDATA[ACTIVE LOG123323]]></name>
    <trkseg>
      <trkpt lat="42.98145" lon="0.53755">
        <ele>1544.438</ele>
        <time>2011-04-10T10:33:23Z</time>
      </trkpt>
      <trkpt lat="42.98145" lon="0.53756">
        <ele>1544.501</ele>
        <time>2011-04-10T10:33:24Z</time>
      </trkpt>
      <trkpt lat="42.9815" lon="0.53758">
        <ele>1544.395</ele>
        <time>2011-04-10T10:33:48Z</time>
      </trkpt>
      <trkpt lat="42.98155" lon="0.5376">
        <ele>1544.576</ele>
        <time>2011-04-10T10:34:14Z</time>
      </trkpt>
      <trkpt lat="42.98157" lon="0.53763">
        <ele>1544.297</ele>
        <time>2011-04-10T10:34:36Z</time>
      </trkpt>
      <trkpt lat="42.98154" lon="0.53764">
        <ele>1544.174</ele>
        <time>2011-04-10T10:35:04Z</time>
      </trkpt>
      <trkpt lat="42.98151" lon="0.53763">
        <ele>1545.111</ele>
        <time>2011-04-10T10:35:18Z</time>
      </trkpt>
      <trkpt lat="42.9815" lon="0.53764">
        <ele>1545.817</ele>
        <time>2011-04-10T10:35:44Z</time>
      </trkpt>
      <trkpt lat="42.98151" lon="0.53765">
        <ele>1544.446</ele>
        <time>2011-04-10T10:35:57Z</time>
      </trkpt>
      <trkpt lat="42.98151" lon="0.53766">
        <ele>1544.292</ele>
        <time>2011-04-10T10:36:13Z</time>
      </trkpt>
      <trkpt lat="42.98152" lon="0.53775">
        <ele>1542.081</ele>
        <time>2011-04-10T10:36:25Z</time>
      </trkpt>
      <trkpt lat="42.98151" lon="0.53781">
        <ele>1541.073</ele>
        <time>2011-04-10T10:36:37Z</time>
      </trkpt>
      <trkpt lat="42.98153" lon="0.53789">
        <ele>1538.876</ele>
        <time>2011-04-10T10:36:47Z</time>
      </trkpt>
      <trkpt lat="42.98153" lon="0.53801">
        <ele>1536.738</ele>
        <time>2011-04-10T10:37:00Z</time>
      </trkpt>
      <trkpt lat="42.98153" lon="0.53808">
        <ele>1535.871</ele>
        <time>2011-04-10T10:37:07Z</time>
      </trkpt>
      <trkpt lat="42.98148" lon="0.53827">
        <ele>1533.287</ele>
        <time>2011-04-10T10:37:25Z</time>
      </trkpt>
      <trkpt lat="42.98145" lon="0.53842">
        <ele>1530.979</ele>
        <time>2011-04-10T10:37:41Z</time>
      </trkpt>
      <trkpt lat="42.9814" lon="0.53862">
        <ele>1529.104</ele>
        <time>2011-04-10T10:37:58Z</time>
      </trkpt>
      <trkpt lat="42.98136" lon="0.53873">
        <ele>1528.239</ele>
        <time>2011-04-10T10:38:11Z</time>
      </trkpt>
      <trkpt lat="42.98136" lon="0.53874">
        <ele>1528.772</ele>
        <time>2011-04-10T10:38:25Z</time>
      </trkpt>
      <trkpt lat="42.98135" lon="0.53873">
        <ele>1528.439</ele>
        <time>2011-04-10T10:38:50Z</time>
      </trkpt>
      <trkpt lat="42.98135" lon="0.53873">
        <ele>1528.932</ele>
        <time>2011-04-10T10:39:29Z</time>
      </trkpt>
      <trkpt lat="42.98132" lon="0.53881">
        <ele>1528.171</ele>
        <time>2011-04-10T10:39:37Z</time>
      </trkpt>
      <trkpt lat="42.98127" lon="0.53887">
        <ele>1526.75</ele>
        <time>2011-04-10T10:39:43Z</time>
      </trkpt>
      <trkpt lat="42.98117" lon="0.53906">
        <ele>1523.777</ele>
        <time>2011-04-10T10:40:01Z</time>
      </trkpt>
      <trkpt lat="42.98103" lon="0.53925">
        <ele>1522.211</ele>
        <time>2011-04-10T10:40:19Z</time>
      </trkpt>
      <trkpt lat="42.98094" lon="0.53941">
        <ele>1519.587</ele>
        <time>2011-04-10T10:40:34Z</time>
      </trkpt>
      <trkpt lat="42.98088" lon="0.53961">
        <ele>1518.5</ele>
        <time>2011-04-10T10:40:50Z</time>
      </trkpt>
      <trkpt lat="42.98083" lon="0.53968">
        <ele>1517.555</ele>
        <time>2011-04-10T10:40:58Z</time>
      </trkpt>
      <trkpt lat="42.98077" lon="0.53996">
        <ele>1517.185</ele>
        <time>2011-04-10T10:41:18Z</time>
      </trkpt>
      <trkpt lat="42.98072" lon="0.54013">
        <ele>1517.686</ele>
        <time>2011-04-10T10:41:34Z</time>
      </trkpt>
      <trkpt lat="42.98067" lon="0.54023">
        <ele>1515.286</ele>
        <time>2011-04-10T10:41:45Z</time>
      </trkpt>
      <trkpt lat="42.98056" lon="0.54035">
        <ele>1513.05</ele>
        <time>2011-04-10T10:42:03Z</time>
      </trkpt>
      <trkpt lat="42.98056" lon="0.54037">
        <ele>1512.304</ele>
        <time>2011-04-10T10:42:06Z</time>
      </trkpt>
      <trkpt lat="42.98053" lon="0.5405">
        <ele>1509.312</ele>
        <time>2011-04-10T10:42:21Z</time>
      </trkpt>
      <trkpt lat="42.98053" lon="0.54052">
        <ele>1507.896</ele>
        <time>2011-04-10T10:42:26Z</time>
      </trkpt>
      <trkpt lat="42.98041" lon="0.54068">
        <ele>1505.853</ele>
        <time>2011-04-10T10:42:47Z</time>
      </trkpt>
      <trkpt lat="42.98031" lon="0.54077">
        <ele>1503.353</ele>
        <time>2011-04-10T10:43:02Z</time>
      </trkpt>
      <trkpt lat="42.98025" lon="0.54092">
        <ele>1499.978</ele>
        <time>2011-04-10T10:43:19Z</time>
      </trkpt>
      <trkpt lat="42.98022" lon="0.54109">
        <ele>1496.907</ele>
        <time>2011-04-10T10:43:36Z</time>
      </trkpt>
      <trkpt lat="42.98022" lon="0.54114">
        <ele>1495.672</ele>
        <time>2011-04-10T10:43:40Z</time>
      </trkpt>
      <trkpt lat="42.9802" lon="0.54126">
        <ele>1493.864</ele>
        <time>2011-04-10T10:43:57Z</time>
      </trkpt>
      <trkpt lat="42.98025" lon="0.54134">
        <ele>1490.495</ele>
        <time>2011-04-10T10:44:15Z</time>
      </trkpt>
      <trkpt lat="42.98023" lon="0.54145">
        <ele>1487.375</ele>
        <time>2011-04-10T10:44:31Z</time>
      </trkpt>
      <trkpt lat="42.98027" lon="0.5414">
        <ele>1486.244</ele>
        <time>2011-04-10T10:44:46Z</time>
      </trkpt>
      <trkpt lat="42.98033" lon="0.54136">
        <ele>1483.949</ele>
        <time>2011-04-10T10:45:07Z</time>
      </trkpt>
      <trkpt lat="42.98044" lon="0.5412">
        <ele>1483.205</ele>
        <time>2011-04-10T10:45:28Z</time>
      </trkpt>
      <trkpt lat="42.98057" lon="0.54111">
        <ele>1481.469</ele>
        <time>2011-04-10T10:45:47Z</time>
      </trkpt>
      <trkpt lat="42.98071" lon="0.54109">
        <ele>1481.093</ele>
        <time>2011-04-10T10:46:06Z</time>
      </trkpt>
      <trkpt lat="42.98085" lon="0.54112">
        <ele>1480.125</ele>
        <time>2011-04-10T10:46:24Z</time>
      </trkpt>
      <trkpt lat="42.98093" lon="0.54111">
        <ele>1478.104</ele>
        <time>2011-04-10T10:46:44Z</time>
      </trkpt>
      <trkpt lat="42.98099" lon="0.54107">
        <ele>1474.994</ele>
        <time>2011-04-10T10:47:00Z</time>
      </trkpt>
      <trkpt lat="42.98113" lon="0.541">
        <ele>1473.89</ele>
        <time>2011-04-10T10:47:17Z</time>
      </trkpt>
      <trkpt lat="42.9812" lon="0.54101">
        <ele>1470.626</ele>
        <time>2011-04-10T10:47:35Z</time>
      </trkpt>
      <trkpt lat="42.98129" lon="0.54093">
        <ele>1469.379</ele>
        <time>2011-04-10T10:47:55Z</time>
      </trkpt>
      <trkpt lat="42.98143" lon="0.54092">
        <ele>1466.783</ele>
        <time>2011-04-10T10:48:21Z</time>
      </trkpt>
      <trkpt lat="42.9816" lon="0.54087">
        <ele>1463.865</ele>
        <time>2011-04-10T10:48:45Z</time>
      </trkpt>
      <trkpt lat="42.98178" lon="0.54075">
        <ele>1461.073</ele>
        <time>2011-04-10T10:49:02Z</time>
      </trkpt>
      <trkpt lat="42.9819" lon="0.54066">
        <ele>1457.996</ele>
        <time>2011-04-10T10:49:19Z</time>
      </trkpt>
      <trkpt lat="42.98205" lon="0.54054">
        <ele>1455.958</ele>
        <time>2011-04-10T10:49:37Z</time>
      </trkpt>
      <trkpt lat="42.98216" lon="0.54043">
        <ele>1452.182</ele>
        <time>2011-04-10T10:49:55Z</time>
      </trkpt>
      <trkpt lat="42.9823" lon="0.54038">
        <ele>1450.076</ele>
        <time>2011-04-10T10:50:11Z</time>
      </trkpt>
      <trkpt lat="42.98249" lon="0.54039">
        <ele>1447.254</ele>
        <time>2011-04-10T10:50:28Z</time>
      </trkpt>
      <trkpt lat="42.98271" lon="0.5401">
        <ele>1444.486</ele>
        <time>2011-04-10T10:50:49Z</time>
      </trkpt>
      <trkpt lat="42.98281" lon="0.53998">
        <ele>1442.524</ele>
        <time>2011-04-10T10:51:08Z</time>
      </trkpt>
      <trkpt lat="42.98299" lon="0.53984">
        <ele>1439.195</ele>
        <time>2011-04-10T10:51:32Z</time>
      </trkpt>
      <trkpt lat="42.98314" lon="0.53979">
        <ele>1435.962</ele>
        <time>2011-04-10T10:51:51Z</time>
      </trkpt>
      <trkpt lat="42.98328" lon="0.53968">
        <ele>1433.03</ele>
        <time>2011-04-10T10:52:13Z</time>
      </trkpt>
      <trkpt lat="42.98339" lon="0.53964">
        <ele>1430.227</ele>
        <time>2011-04-10T10:52:27Z</time>
      </trkpt>
      <trkpt lat="42.9835" lon="0.53966">
        <ele>1426.974</ele>
        <time>2011-04-10T10:52:38Z</time>
      </trkpt>
      <trkpt lat="42.98358" lon="0.53975">
        <ele>1426.756</ele>
        <time>2011-04-10T10:52:54Z</time>
      </trkpt>
      <trkpt lat="42.98356" lon="0.53973">
        <ele>1426.857</ele>
        <time>2011-04-10T10:53:17Z</time>
      </trkpt>
      <trkpt lat="42.98355" lon="0.53971">
        <ele>1426.33</ele>
        <time>2011-04-10T10:53:38Z</time>
      </trkpt>
      <trkpt lat="42.98352" lon="0.53964">
        <ele>1426.385</ele>
        <time>2011-04-10T10:53:53Z</time>
      </trkpt>
      <trkpt lat="42.98353" lon="0.53957">
        <ele>1426.125</ele>
        <time>2011-04-10T10:54:23Z</time>
      </trkpt>
      <trkpt lat="42.98355" lon="0.53958">
        <ele>1426.746</ele>
        <time>2011-04-10T10:54:45Z</time>
      </trkpt>
      <trkpt lat="42.98357" lon="0.5396">
        <ele>1426.779</ele>
        <time>2011-04-10T10:55:14Z</time>
      </trkpt>
      <trkpt lat="42.98364" lon="0.53974">
        <ele>1426.313</ele>
        <time>2011-04-10T10:55:41Z</time>
      </trkpt>
      <trkpt lat="42.98365" lon="0.53974">
        <ele>1426.634</ele>
        <time>2011-04-10T10:56:10Z</time>
      </trkpt>
      <trkpt lat="42.98365" lon="0.53973">
        <ele>1426.421</ele>
        <time>2011-04-10T10:56:42Z</time>
      </trkpt>
      <trkpt lat="42.98365" lon="0.53974">
        <ele>1427.271</ele>
        <time>2011-04-10T10:57:08Z</time>
      </trkpt>
      <trkpt lat="42.98365" lon="0.53975">
        <ele>1427.116</ele>
        <time>2011-04-10T10:57:29Z</time>
      </trkpt>
      <trkpt lat="42.9835" lon="0.53973">
        <ele>1427.398</ele>
        <time>2011-04-10T10:57:54Z</time>
      </trkpt>
      <trkpt lat="42.98351" lon="0.53973">
        <ele>1426.716</ele>
        <time>2011-04-10T10:58:30Z</time>
      </trkpt>
      <trkpt lat="42.98353" lon="0.53977">
        <ele>1426.743</ele>
        <time>2011-04-10T10:58:55Z</time>
      </trkpt>
      <trkpt lat="42.98372" lon="0.53965">
        <ele>1423.949</ele>
        <time>2011-04-10T10:59:16Z</time>
      </trkpt>
      <trkpt lat="42.98394" lon="0.5395">
        <ele>1420.898</ele>
        <time>2011-04-10T10:59:37Z</time>
      </trkpt>
      <trkpt lat="42.98408" lon="0.53936">
        <ele>1417.561</ele>
        <time>2011-04-10T10:59:49Z</time>
      </trkpt>
      <trkpt lat="42.98424" lon="0.53918">
        <ele>1414.232</ele>
        <time>2011-04-10T11:00:11Z</time>
      </trkpt>
      <trkpt lat="42.98438" lon="0.53902">
        <ele>1411.079</ele>
        <time>2011-04-10T11:00:29Z</time>
      </trkpt>
      <trkpt lat="42.98452" lon="0.53888">
        <ele>1408.015</ele>
        <time>2011-04-10T11:00:45Z</time>
      </trkpt>
      <trkpt lat="42.98466" lon="0.53865">
        <ele>1405.415</ele>
        <time>2011-04-10T11:01:09Z</time>
      </trkpt>
      <trkpt lat="42.98477" lon="0.53847">
        <ele>1402.171</ele>
        <time>2011-04-10T11:01:25Z</time>
      </trkpt>
      <trkpt lat="42.98482" lon="0.53833">
        <ele>1400.327</ele>
        <time>2011-04-10T11:01:35Z</time>
      </trkpt>
      <trkpt lat="42.98481" lon="0.5383">
        <ele>1400.176</ele>
        <time>2011-04-10T11:01:37Z</time>
      </trkpt>
      <trkpt lat="42.98492" lon="0.53809">
        <ele>1397.371</ele>
        <time>2011-04-10T11:01:56Z</time>
      </trkpt>
      <trkpt lat="42.98507" lon="0.53788">
        <ele>1394.041</ele>
        <time>2011-04-10T11:02:18Z</time>
      </trkpt>
      <trkpt lat="42.98516" lon="0.53777">
        <ele>1390.915</ele>
        <time>2011-04-10T11:02:31Z</time>
      </trkpt>
      <trkpt lat="42.9853" lon="0.53753">
        <ele>1387.584</ele>
        <time>2011-04-10T11:02:53Z</time>
      </trkpt>
      <trkpt lat="42.98545" lon="0.53727">
        <ele>1384.191</ele>
        <time>2011-04-10T11:03:17Z</time>
      </trkpt>
      <trkpt lat="42.98548" lon="0.53712">
        <ele>1382.722</ele>
        <time>2011-04-10T11:03:27Z</time>
      </trkpt>
      <trkpt lat="42.98552" lon="0.53703">
        <ele>1381.42</ele>
        <time>2011-04-10T11:03:34Z</time>
      </trkpt>
      <trkpt lat="42.98553" lon="0.53695">
        <ele>1380.108</ele>
        <time>2011-04-10T11:03:38Z</time>
      </trkpt>
      <trkpt lat="42.98565" lon="0.53668">
        <ele>1377.014</ele>
        <time>2011-04-10T11:03:56Z</time>
      </trkpt>
      <trkpt lat="42.98574" lon="0.53642">
        <ele>1374.589</ele>
        <time>2011-04-10T11:04:14Z</time>
      </trkpt>
      <trkpt lat="42.98583" lon="0.53624">
        <ele>1371.598</ele>
        <time>2011-04-10T11:04:29Z</time>
      </trkpt>
      <trkpt lat="42.98591" lon="0.53593">
        <ele>1368.862</ele>
        <time>2011-04-10T11:04:48Z</time>
      </trkpt>
      <trkpt lat="42.986" lon="0.53582">
        <ele>1365.831</ele>
        <time>2011-04-10T11:05:05Z</time>
      </trkpt>
      <trkpt lat="42.98611" lon="0.53569">
        <ele>1362.738</ele>
        <time>2011-04-10T11:05:22Z</time>
      </trkpt>
      <trkpt lat="42.98614" lon="0.53585">
        <ele>1360.837</ele>
        <time>2011-04-10T11:05:33Z</time>
      </trkpt>
      <trkpt lat="42.98615" lon="0.53591">
        <ele>1360.091</ele>
        <time>2011-04-10T11:05:37Z</time>
      </trkpt>
      <trkpt lat="42.98622" lon="0.5361">
        <ele>1358.052</ele>
        <time>2011-04-10T11:05:50Z</time>
      </trkpt>
      <trkpt lat="42.98624" lon="0.53627">
        <ele>1356.625</ele>
        <time>2011-04-10T11:06:01Z</time>
      </trkpt>
      <trkpt lat="42.98628" lon="0.53654">
        <ele>1354.58</ele>
        <time>2011-04-10T11:06:19Z</time>
      </trkpt>
      <trkpt lat="42.98626" lon="0.53683">
        <ele>1352.9</ele>
        <time>2011-04-10T11:06:39Z</time>
      </trkpt>
      <trkpt lat="42.98624" lon="0.53704">
        <ele>1350.167</ele>
        <time>2011-04-10T11:06:54Z</time>
      </trkpt>
      <trkpt lat="42.98622" lon="0.53726">
        <ele>1348.12</ele>
        <time>2011-04-10T11:07:12Z</time>
      </trkpt>
      <trkpt lat="42.98618" lon="0.53749">
        <ele>1346.034</ele>
        <time>2011-04-10T11:07:29Z</time>
      </trkpt>
      <trkpt lat="42.98613" lon="0.53777">
        <ele>1343.098</ele>
        <time>2011-04-10T11:07:48Z</time>
      </trkpt>
      <trkpt lat="42.9861" lon="0.53802">
        <ele>1340.095</ele>
        <time>2011-04-10T11:08:07Z</time>
      </trkpt>
      <trkpt lat="42.98603" lon="0.53828">
        <ele>1337.544</ele>
        <time>2011-04-10T11:08:26Z</time>
      </trkpt>
      <trkpt lat="42.98593" lon="0.53852">
        <ele>1335.25</ele>
        <time>2011-04-10T11:08:46Z</time>
      </trkpt>
      <trkpt lat="42.98587" lon="0.5386">
        <ele>1333.848</ele>
        <time>2011-04-10T11:08:54Z</time>
      </trkpt>
      <trkpt lat="42.9858" lon="0.53889">
        <ele>1330.62</ele>
        <time>2011-04-10T11:09:14Z</time>
      </trkpt>
      <trkpt lat="42.98573" lon="0.53914">
        <ele>1327.5</ele>
        <time>2011-04-10T11:09:32Z</time>
      </trkpt>
      <trkpt lat="42.98566" lon="0.53945">
        <ele>1325.11</ele>
        <time>2011-04-10T11:09:53Z</time>
      </trkpt>
      <trkpt lat="42.98562" lon="0.5397">
        <ele>1321.834</ele>
        <time>2011-04-10T11:10:10Z</time>
      </trkpt>
      <trkpt lat="42.98555" lon="0.54004">
        <ele>1318.821</ele>
        <time>2011-04-10T11:10:32Z</time>
      </trkpt>
      <trkpt lat="42.9855" lon="0.54024">
        <ele>1315.43</ele>
        <time>2011-04-10T11:10:47Z</time>
      </trkpt>
      <trkpt lat="42.98543" lon="0.54047">
        <ele>1312.714</ele>
        <time>2011-04-10T11:11:05Z</time>
      </trkpt>
      <trkpt lat="42.98535" lon="0.54072">
        <ele>1309.479</ele>
        <time>2011-04-10T11:11:23Z</time>
      </trkpt>
      <trkpt lat="42.98529" lon="0.54093">
        <ele>1307.731</ele>
        <time>2011-04-10T11:11:39Z</time>
      </trkpt>
      <trkpt lat="42.98521" lon="0.54115">
        <ele>1304.601</ele>
        <time>2011-04-10T11:11:55Z</time>
      </trkpt>
      <trkpt lat="42.98513" lon="0.54138">
        <ele>1301.563</ele>
        <time>2011-04-10T11:12:16Z</time>
      </trkpt>
      <trkpt lat="42.98503" lon="0.54138">
        <ele>1301.087</ele>
        <time>2011-04-10T11:12:21Z</time>
      </trkpt>
      <trkpt lat="42.98514" lon="0.54121">
        <ele>1299.962</ele>
        <time>2011-04-10T11:12:38Z</time>
      </trkpt>
      <trkpt lat="42.98518" lon="0.54122">
        <ele>1298.248</ele>
        <time>2011-04-10T11:12:43Z</time>
      </trkpt>
      <trkpt lat="42.98529" lon="0.54113">
        <ele>1295.765</ele>
        <time>2011-04-10T11:12:57Z</time>
      </trkpt>
      <trkpt lat="42.98538" lon="0.54103">
        <ele>1292.871</ele>
        <time>2011-04-10T11:13:11Z</time>
      </trkpt>
      <trkpt lat="42.98556" lon="0.54084">
        <ele>1289.026</ele>
        <time>2011-04-10T11:13:30Z</time>
      </trkpt>
      <trkpt lat="42.98573" lon="0.54067">
        <ele>1285.969</ele>
        <time>2011-04-10T11:13:49Z</time>
      </trkpt>
      <trkpt lat="42.98579" lon="0.54061">
        <ele>1284.207</ele>
        <time>2011-04-10T11:13:57Z</time>
      </trkpt>
      <trkpt lat="42.98594" lon="0.54047">
        <ele>1281.439</ele>
        <time>2011-04-10T11:14:15Z</time>
      </trkpt>
      <trkpt lat="42.98599" lon="0.5404">
        <ele>1279.52</ele>
        <time>2011-04-10T11:14:22Z</time>
      </trkpt>
      <trkpt lat="42.98609" lon="0.54057">
        <ele>1276.68</ele>
        <time>2011-04-10T11:14:36Z</time>
      </trkpt>
      <trkpt lat="42.98608" lon="0.54063">
        <ele>1275.578</ele>
        <time>2011-04-10T11:14:40Z</time>
      </trkpt>
      <trkpt lat="42.98605" lon="0.54082">
        <ele>1272.05</ele>
        <time>2011-04-10T11:14:56Z</time>
      </trkpt>
      <trkpt lat="42.98602" lon="0.54101">
        <ele>1268.729</ele>
        <time>2011-04-10T11:15:11Z</time>
      </trkpt>
      <trkpt lat="42.98598" lon="0.54113">
        <ele>1266.489</ele>
        <time>2011-04-10T11:15:28Z</time>
      </trkpt>
      <trkpt lat="42.98596" lon="0.54129">
        <ele>1263.339</ele>
        <time>2011-04-10T11:15:42Z</time>
      </trkpt>
      <trkpt lat="42.9859" lon="0.54146">
        <ele>1260.022</ele>
        <time>2011-04-10T11:15:57Z</time>
      </trkpt>
      <trkpt lat="42.98584" lon="0.54161">
        <ele>1256.724</ele>
        <time>2011-04-10T11:16:13Z</time>
      </trkpt>
      <trkpt lat="42.98585" lon="0.54185">
        <ele>1253.597</ele>
        <time>2011-04-10T11:16:30Z</time>
      </trkpt>
      <trkpt lat="42.98584" lon="0.54197">
        <ele>1250.293</ele>
        <time>2011-04-10T11:16:44Z</time>
      </trkpt>
      <trkpt lat="42.98584" lon="0.54214">
        <ele>1247.136</ele>
        <time>2011-04-10T11:16:58Z</time>
      </trkpt>
      <trkpt lat="42.98581" lon="0.54235">
        <ele>1244.116</ele>
        <time>2011-04-10T11:17:12Z</time>
      </trkpt>
      <trkpt lat="42.98575" lon="0.54247">
        <ele>1242.593</ele>
        <time>2011-04-10T11:17:33Z</time>
      </trkpt>
      <trkpt lat="42.98572" lon="0.54241">
        <ele>1243.136</ele>
        <time>2011-04-10T11:18:08Z</time>
      </trkpt>
      <trkpt lat="42.9857" lon="0.54256">
        <ele>1241.749</ele>
        <time>2011-04-10T11:18:32Z</time>
      </trkpt>
      <trkpt lat="42.98577" lon="0.54258">
        <ele>1239.746</ele>
        <time>2011-04-10T11:18:47Z</time>
      </trkpt>
      <trkpt lat="42.98588" lon="0.54249">
        <ele>1236.46</ele>
        <time>2011-04-10T11:19:01Z</time>
      </trkpt>
      <trkpt lat="42.98595" lon="0.54242">
        <ele>1234.51</ele>
        <time>2011-04-10T11:19:11Z</time>
      </trkpt>
      <trkpt lat="42.98606" lon="0.54247">
        <ele>1233.023</ele>
        <time>2011-04-10T11:19:20Z</time>
      </trkpt>
      <trkpt lat="42.98603" lon="0.54265">
        <ele>1229.398</ele>
        <time>2011-04-10T11:19:34Z</time>
      </trkpt>
      <trkpt lat="42.98603" lon="0.54272">
        <ele>1227.349</ele>
        <time>2011-04-10T11:19:49Z</time>
      </trkpt>
      <trkpt lat="42.98602" lon="0.54293">
        <ele>1224.303</ele>
        <time>2011-04-10T11:20:03Z</time>
      </trkpt>
      <trkpt lat="42.986" lon="0.54307">
        <ele>1221.268</ele>
        <time>2011-04-10T11:20:16Z</time>
      </trkpt>
      <trkpt lat="42.986" lon="0.54325">
        <ele>1217.963</ele>
        <time>2011-04-10T11:20:30Z</time>
      </trkpt>
      <trkpt lat="42.98599" lon="0.54344">
        <ele>1214.959</ele>
        <time>2011-04-10T11:20:45Z</time>
      </trkpt>
      <trkpt lat="42.98598" lon="0.54362">
        <ele>1211.837</ele>
        <time>2011-04-10T11:20:58Z</time>
      </trkpt>
      <trkpt lat="42.98596" lon="0.54381">
        <ele>1208.495</ele>
        <time>2011-04-10T11:21:12Z</time>
      </trkpt>
      <trkpt lat="42.98596" lon="0.54382">
        <ele>1208.35</ele>
        <time>2011-04-10T11:21:13Z</time>
      </trkpt>
      <trkpt lat="42.9859" lon="0.54402">
        <ele>1205.037</ele>
        <time>2011-04-10T11:21:29Z</time>
      </trkpt>
      <trkpt lat="42.98582" lon="0.54414">
        <ele>1201.951</ele>
        <time>2011-04-10T11:21:45Z</time>
      </trkpt>
      <trkpt lat="42.98573" lon="0.54431">
        <ele>1198.594</ele>
        <time>2011-04-10T11:22:02Z</time>
      </trkpt>
      <trkpt lat="42.98566" lon="0.5444">
        <ele>1195.96</ele>
        <time>2011-04-10T11:22:19Z</time>
      </trkpt>
      <trkpt lat="42.98565" lon="0.54432">
        <ele>1195.7</ele>
        <time>2011-04-10T11:22:39Z</time>
      </trkpt>
      <trkpt lat="42.98567" lon="0.54434">
        <ele>1195.337</ele>
        <time>2011-04-10T11:23:10Z</time>
      </trkpt>
      <trkpt lat="42.98571" lon="0.54439">
        <ele>1194.567</ele>
        <time>2011-04-10T11:23:36Z</time>
      </trkpt>
      <trkpt lat="42.98569" lon="0.54438">
        <ele>1195.917</ele>
        <time>2011-04-10T11:24:09Z</time>
      </trkpt>
      <trkpt lat="42.98569" lon="0.54436">
        <ele>1196.365</ele>
        <time>2011-04-10T11:24:34Z</time>
      </trkpt>
      <trkpt lat="42.98569" lon="0.54433">
        <ele>1196.796</ele>
        <time>2011-04-10T11:24:53Z</time>
      </trkpt>
      <trkpt lat="42.98568" lon="0.54428">
        <ele>1196.613</ele>
        <time>2011-04-10T11:25:13Z</time>
      </trkpt>
      <trkpt lat="42.9857" lon="0.54428">
        <ele>1197.164</ele>
        <time>2011-04-10T11:25:46Z</time>
      </trkpt>
      <trkpt lat="42.98567" lon="0.54432">
        <ele>1195.781</ele>
        <time>2011-04-10T11:26:06Z</time>
      </trkpt>
      <trkpt lat="42.98557" lon="0.54442">
        <ele>1193.314</ele>
        <time>2011-04-10T11:26:19Z</time>
      </trkpt>
      <trkpt lat="42.98548" lon="0.54453">
        <ele>1190.098</ele>
        <time>2011-04-10T11:26:32Z</time>
      </trkpt>
      <trkpt lat="42.98536" lon="0.54463">
        <ele>1187.097</ele>
        <time>2011-04-10T11:26:48Z</time>
      </trkpt>
      <trkpt lat="42.98523" lon="0.54465">
        <ele>1183.928</ele>
        <time>2011-04-10T11:27:06Z</time>
      </trkpt>
      <trkpt lat="42.98512" lon="0.54465">
        <ele>1180.892</ele>
        <time>2011-04-10T11:27:21Z</time>
      </trkpt>
      <trkpt lat="42.985" lon="0.54465">
        <ele>1177.446</ele>
        <time>2011-04-10T11:27:38Z</time>
      </trkpt>
      <trkpt lat="42.98498" lon="0.54465">
        <ele>1177.07</ele>
        <time>2011-04-10T11:27:41Z</time>
      </trkpt>
      <trkpt lat="42.98486" lon="0.54481">
        <ele>1174.055</ele>
        <time>2011-04-10T11:27:59Z</time>
      </trkpt>
      <trkpt lat="42.98469" lon="0.54485">
        <ele>1170.785</ele>
        <time>2011-04-10T11:28:16Z</time>
      </trkpt>
      <trkpt lat="42.98459" lon="0.54482">
        <ele>1167.343</ele>
        <time>2011-04-10T11:28:31Z</time>
      </trkpt>
      <trkpt lat="42.98449" lon="0.54487">
        <ele>1163.989</ele>
        <time>2011-04-10T11:28:45Z</time>
      </trkpt>
      <trkpt lat="42.98448" lon="0.54498">
        <ele>1161.392</ele>
        <time>2011-04-10T11:28:59Z</time>
      </trkpt>
      <trkpt lat="42.98447" lon="0.54506">
        <ele>1160.52</ele>
        <time>2011-04-10T11:29:06Z</time>
      </trkpt>
      <trkpt lat="42.98441" lon="0.54521">
        <ele>1156.697</ele>
        <time>2011-04-10T11:29:22Z</time>
      </trkpt>
      <trkpt lat="42.98436" lon="0.54534">
        <ele>1153.411</ele>
        <time>2011-04-10T11:29:36Z</time>
      </trkpt>
      <trkpt lat="42.98427" lon="0.54548">
        <ele>1150.351</ele>
        <time>2011-04-10T11:29:50Z</time>
      </trkpt>
      <trkpt lat="42.98418" lon="0.54564">
        <ele>1146.949</ele>
        <time>2011-04-10T11:30:06Z</time>
      </trkpt>
      <trkpt lat="42.98417" lon="0.54565">
        <ele>1146.716</ele>
        <time>2011-04-10T11:30:07Z</time>
      </trkpt>
      <trkpt lat="42.98407" lon="0.54579">
        <ele>1143.155</ele>
        <time>2011-04-10T11:30:22Z</time>
      </trkpt>
      <trkpt lat="42.98403" lon="0.54585">
        <ele>1140.919</ele>
        <time>2011-04-10T11:30:32Z</time>
      </trkpt>
      <trkpt lat="42.98396" lon="0.54596">
        <ele>1137.897</ele>
        <time>2011-04-10T11:30:44Z</time>
      </trkpt>
      <trkpt lat="42.98388" lon="0.54608">
        <ele>1135.484</ele>
        <time>2011-04-10T11:30:57Z</time>
      </trkpt>
      <trkpt lat="42.98378" lon="0.54619">
        <ele>1132.626</ele>
        <time>2011-04-10T11:31:10Z</time>
      </trkpt>
      <trkpt lat="42.98371" lon="0.54633">
        <ele>1129.021</ele>
        <time>2011-04-10T11:31:23Z</time>
      </trkpt>
      <trkpt lat="42.98367" lon="0.5464">
        <ele>1127.337</ele>
        <time>2011-04-10T11:31:29Z</time>
      </trkpt>
      <trkpt lat="42.98358" lon="0.54653">
        <ele>1123.961</ele>
        <time>2011-04-10T11:31:44Z</time>
      </trkpt>
      <trkpt lat="42.98349" lon="0.54664">
        <ele>1120.944</ele>
        <time>2011-04-10T11:31:59Z</time>
      </trkpt>
      <trkpt lat="42.98341" lon="0.54673">
        <ele>1117.868</ele>
        <time>2011-04-10T11:32:12Z</time>
      </trkpt>
      <trkpt lat="42.98333" lon="0.54683">
        <ele>1114.847</ele>
        <time>2011-04-10T11:32:26Z</time>
      </trkpt>
      <trkpt lat="42.98323" lon="0.54696">
        <ele>1111.594</ele>
        <time>2011-04-10T11:32:41Z</time>
      </trkpt>
      <trkpt lat="42.98317" lon="0.54705">
        <ele>1108.46</ele>
        <time>2011-04-10T11:32:54Z</time>
      </trkpt>
      <trkpt lat="42.98308" lon="0.54723">
        <ele>1105.415</ele>
        <time>2011-04-10T11:33:10Z</time>
      </trkpt>
      <trkpt lat="42.98303" lon="0.54738">
        <ele>1102.139</ele>
        <time>2011-04-10T11:33:22Z</time>
      </trkpt>
      <trkpt lat="42.98295" lon="0.54753">
        <ele>1099.021</ele>
        <time>2011-04-10T11:33:37Z</time>
      </trkpt>
      <trkpt lat="42.98289" lon="0.54771">
        <ele>1095.54</ele>
        <time>2011-04-10T11:33:52Z</time>
      </trkpt>
      <trkpt lat="42.9828" lon="0.5479">
        <ele>1092.248</ele>
        <time>2011-04-10T11:34:10Z</time>
      </trkpt>
      <trkpt lat="42.98272" lon="0.54815">
        <ele>1089.983</ele>
        <time>2011-04-10T11:34:28Z</time>
      </trkpt>
      <trkpt lat="42.98262" lon="0.54832">
        <ele>1087.05</ele>
        <time>2011-04-10T11:34:46Z</time>
      </trkpt>
      <trkpt lat="42.9826" lon="0.5484">
        <ele>1085.511</ele>
        <time>2011-04-10T11:34:53Z</time>
      </trkpt>
      <trkpt lat="42.98257" lon="0.54848">
        <ele>1085.351</ele>
        <time>2011-04-10T11:35:14Z</time>
      </trkpt>
      <trkpt lat="42.98261" lon="0.5485">
        <ele>1084.516</ele>
        <time>2011-04-10T11:35:45Z</time>
      </trkpt>
      <trkpt lat="42.98277" lon="0.54852">
        <ele>1084.902</ele>
        <time>2011-04-10T11:36:16Z</time>
      </trkpt>
      <trkpt lat="42.98273" lon="0.54851">
        <ele>1085.438</ele>
        <time>2011-04-10T11:36:45Z</time>
      </trkpt>
      <trkpt lat="42.98268" lon="0.54849">
        <ele>1085.018</ele>
        <time>2011-04-10T11:37:15Z</time>
      </trkpt>
      <trkpt lat="42.98265" lon="0.54849">
        <ele>1084.972</ele>
        <time>2011-04-10T11:37:43Z</time>
      </trkpt>
      <trkpt lat="42.98255" lon="0.54845">
        <ele>1085.021</ele>
        <time>2011-04-10T11:38:05Z</time>
      </trkpt>
      <trkpt lat="42.98255" lon="0.54843">
        <ele>1085.505</ele>
        <time>2011-04-10T11:38:30Z</time>
      </trkpt>
      <trkpt lat="42.98255" lon="0.54843">
        <ele>1085.81</ele>
        <time>2011-04-10T11:38:41Z</time>
      </trkpt>
      <trkpt lat="42.98274" lon="0.54818">
        <ele>1085.249</ele>
        <time>2011-04-10T11:39:05Z</time>
      </trkpt>
      <trkpt lat="42.9829" lon="0.54796">
        <ele>1084.456</ele>
        <time>2011-04-10T11:39:28Z</time>
      </trkpt>
      <trkpt lat="42.98298" lon="0.548">
        <ele>1082.503</ele>
        <time>2011-04-10T11:39:46Z</time>
      </trkpt>
      <trkpt lat="42.98294" lon="0.54814">
        <ele>1080.768</ele>
        <time>2011-04-10T11:40:02Z</time>
      </trkpt>
      <trkpt lat="42.98288" lon="0.54833">
        <ele>1077.322</ele>
        <time>2011-04-10T11:40:20Z</time>
      </trkpt>
      <trkpt lat="42.98284" lon="0.54854">
        <ele>1074.218</ele>
        <time>2011-04-10T11:40:37Z</time>
      </trkpt>
      <trkpt lat="42.98286" lon="0.54855">
        <ele>1073.543</ele>
        <time>2011-04-10T11:40:39Z</time>
      </trkpt>
      <trkpt lat="42.98285" lon="0.54873">
        <ele>1071.599</ele>
        <time>2011-04-10T11:40:51Z</time>
      </trkpt>
      <trkpt lat="42.98285" lon="0.54892">
        <ele>1069.421</ele>
        <time>2011-04-10T11:41:08Z</time>
      </trkpt>
      <trkpt lat="42.98284" lon="0.54906">
        <ele>1067.022</ele>
        <time>2011-04-10T11:41:18Z</time>
      </trkpt>
      <trkpt lat="42.98279" lon="0.54928">
        <ele>1063.745</ele>
        <time>2011-04-10T11:41:34Z</time>
      </trkpt>
      <trkpt lat="42.98274" lon="0.54947">
        <ele>1060.676</ele>
        <time>2011-04-10T11:41:48Z</time>
      </trkpt>
      <trkpt lat="42.9827" lon="0.54953">
        <ele>1059.698</ele>
        <time>2011-04-10T11:41:55Z</time>
      </trkpt>
      <trkpt lat="42.98256" lon="0.54973">
        <ele>1056.203</ele>
        <time>2011-04-10T11:42:14Z</time>
      </trkpt>
      <trkpt lat="42.98243" lon="0.54981">
        <ele>1053.239</ele>
        <time>2011-04-10T11:42:31Z</time>
      </trkpt>
      <trkpt lat="42.98254" lon="0.54981">
        <ele>1050.808</ele>
        <time>2011-04-10T11:42:50Z</time>
      </trkpt>
      <trkpt lat="42.98263" lon="0.54976">
        <ele>1049.759</ele>
        <time>2011-04-10T11:43:02Z</time>
      </trkpt>
      <trkpt lat="42.98271" lon="0.54971">
        <ele>1047.584</ele>
        <time>2011-04-10T11:43:19Z</time>
      </trkpt>
      <trkpt lat="42.98287" lon="0.54959">
        <ele>1044.34</ele>
        <time>2011-04-10T11:43:38Z</time>
      </trkpt>
      <trkpt lat="42.98299" lon="0.54945">
        <ele>1041.165</ele>
        <time>2011-04-10T11:43:56Z</time>
      </trkpt>
      <trkpt lat="42.98312" lon="0.5493">
        <ele>1038.134</ele>
        <time>2011-04-10T11:44:15Z</time>
      </trkpt>
      <trkpt lat="42.9832" lon="0.5492">
        <ele>1034.815</ele>
        <time>2011-04-10T11:44:34Z</time>
      </trkpt>
      <trkpt lat="42.98327" lon="0.54916">
        <ele>1032.878</ele>
        <time>2011-04-10T11:44:42Z</time>
      </trkpt>
      <trkpt lat="42.98345" lon="0.54899">
        <ele>1031.512</ele>
        <time>2011-04-10T11:45:01Z</time>
      </trkpt>
      <trkpt lat="42.98359" lon="0.54886">
        <ele>1031.459</ele>
        <time>2011-04-10T11:45:21Z</time>
      </trkpt>
      <trkpt lat="42.9837" lon="0.54893">
        <ele>1028.072</ele>
        <time>2011-04-10T11:45:39Z</time>
      </trkpt>
      <trkpt lat="42.98381" lon="0.54897">
        <ele>1025.037</ele>
        <time>2011-04-10T11:45:55Z</time>
      </trkpt>
      <trkpt lat="42.98391" lon="0.54893">
        <ele>1024.208</ele>
        <time>2011-04-10T11:46:10Z</time>
      </trkpt>
      <trkpt lat="42.98415" lon="0.54885">
        <ele>1023.317</ele>
        <time>2011-04-10T11:46:29Z</time>
      </trkpt>
      <trkpt lat="42.98417" lon="0.54885">
        <ele>1023.319</ele>
        <time>2011-04-10T11:46:32Z</time>
      </trkpt>
      <trkpt lat="42.98431" lon="0.54889">
        <ele>1021.169</ele>
        <time>2011-04-10T11:46:44Z</time>
      </trkpt>
      <trkpt lat="42.9845" lon="0.54892">
        <ele>1020.156</ele>
        <time>2011-04-10T11:47:05Z</time>
      </trkpt>
      <trkpt lat="42.98451" lon="0.54891">
        <ele>1018.812</ele>
        <time>2011-04-10T11:47:27Z</time>
      </trkpt>
      <trkpt lat="42.98469" lon="0.5488">
        <ele>1018.094</ele>
        <time>2011-04-10T11:47:50Z</time>
      </trkpt>
      <trkpt lat="42.98477" lon="0.54882">
        <ele>1015.342</ele>
        <time>2011-04-10T11:48:08Z</time>
      </trkpt>
      <trkpt lat="42.98491" lon="0.54888">
        <ele>1012.332</ele>
        <time>2011-04-10T11:48:23Z</time>
      </trkpt>
      <trkpt lat="42.985" lon="0.54897">
        <ele>1010.04</ele>
        <time>2011-04-10T11:48:38Z</time>
      </trkpt>
      <trkpt lat="42.98509" lon="0.54907">
        <ele>1009.086</ele>
        <time>2011-04-10T11:48:54Z</time>
      </trkpt>
      <trkpt lat="42.98511" lon="0.54912">
        <ele>1005.484</ele>
        <time>2011-04-10T11:49:14Z</time>
      </trkpt>
      <trkpt lat="42.98507" lon="0.54916">
        <ele>1004.875</ele>
        <time>2011-04-10T11:49:31Z</time>
      </trkpt>
      <trkpt lat="42.98504" lon="0.54918">
        <ele>1004.684</ele>
        <time>2011-04-10T11:49:51Z</time>
      </trkpt>
      <trkpt lat="42.98502" lon="0.54918">
        <ele>1004.446</ele>
        <time>2011-04-10T11:50:22Z</time>
      </trkpt>
      <trkpt lat="42.98501" lon="0.54917">
        <ele>1004.002</ele>
        <time>2011-04-10T11:50:42Z</time>
      </trkpt>
      <trkpt lat="42.98493" lon="0.54924">
        <ele>1002.504</ele>
        <time>2011-04-10T11:51:04Z</time>
      </trkpt>
      <trkpt lat="42.98493" lon="0.54925">
        <ele>1002.355</ele>
        <time>2011-04-10T11:51:26Z</time>
      </trkpt>
      <trkpt lat="42.98489" lon="0.54941">
        <ele>999.906</ele>
        <time>2011-04-10T11:51:43Z</time>
      </trkpt>
      <trkpt lat="42.98485" lon="0.5495">
        <ele>997.821</ele>
        <time>2011-04-10T11:51:58Z</time>
      </trkpt>
      <trkpt lat="42.98471" lon="0.5497">
        <ele>994.521</ele>
        <time>2011-04-10T11:52:16Z</time>
      </trkpt>
      <trkpt lat="42.98466" lon="0.54981">
        <ele>991.393</ele>
        <time>2011-04-10T11:52:28Z</time>
      </trkpt>
      <trkpt lat="42.98456" lon="0.54998">
        <ele>987.774</ele>
        <time>2011-04-10T11:52:45Z</time>
      </trkpt>
      <trkpt lat="42.98451" lon="0.55007">
        <ele>984.653</ele>
        <time>2011-04-10T11:53:00Z</time>
      </trkpt>
      <trkpt lat="42.98442" lon="0.55017">
        <ele>981.49</ele>
        <time>2011-04-10T11:53:17Z</time>
      </trkpt>
      <trkpt lat="42.98438" lon="0.55022">
        <ele>980.775</ele>
        <time>2011-04-10T11:53:21Z</time>
      </trkpt>
      <trkpt lat="42.98432" lon="0.55033">
        <ele>977.798</ele>
        <time>2011-04-10T11:53:35Z</time>
      </trkpt>
      <trkpt lat="42.98431" lon="0.5505">
        <ele>974.749</ele>
        <time>2011-04-10T11:53:51Z</time>
      </trkpt>
      <trkpt lat="42.98427" lon="0.55058">
        <ele>972.078</ele>
        <time>2011-04-10T11:54:06Z</time>
      </trkpt>
      <trkpt lat="42.98423" lon="0.55058">
        <ele>971.804</ele>
        <time>2011-04-10T11:54:32Z</time>
      </trkpt>
      <trkpt lat="42.98425" lon="0.55053">
        <ele>970.872</ele>
        <time>2011-04-10T11:54:55Z</time>
      </trkpt>
      <trkpt lat="42.98429" lon="0.55046">
        <ele>971.406</ele>
        <time>2011-04-10T11:55:21Z</time>
      </trkpt>
      <trkpt lat="42.98428" lon="0.55048">
        <ele>971.089</ele>
        <time>2011-04-10T11:55:44Z</time>
      </trkpt>
      <trkpt lat="42.98424" lon="0.55049">
        <ele>972.082</ele>
        <time>2011-04-10T11:56:10Z</time>
      </trkpt>
      <trkpt lat="42.98426" lon="0.55053">
        <ele>969.997</ele>
        <time>2011-04-10T11:56:38Z</time>
      </trkpt>
      <trkpt lat="42.98423" lon="0.55074">
        <ele>966.846</ele>
        <time>2011-04-10T11:56:56Z</time>
      </trkpt>
      <trkpt lat="42.9842" lon="0.55088">
        <ele>963.708</ele>
        <time>2011-04-10T11:57:14Z</time>
      </trkpt>
      <trkpt lat="42.98419" lon="0.55097">
        <ele>961.789</ele>
        <time>2011-04-10T11:57:27Z</time>
      </trkpt>
      <trkpt lat="42.98414" lon="0.55112">
        <ele>959.25</ele>
        <time>2011-04-10T11:57:42Z</time>
      </trkpt>
      <trkpt lat="42.98405" lon="0.5513">
        <ele>956.13</ele>
        <time>2011-04-10T11:57:58Z</time>
      </trkpt>
      <trkpt lat="42.98398" lon="0.55145">
        <ele>954.209</ele>
        <time>2011-04-10T11:58:13Z</time>
      </trkpt>
      <trkpt lat="42.98383" lon="0.55163">
        <ele>951.333</ele>
        <time>2011-04-10T11:58:30Z</time>
      </trkpt>
      <trkpt lat="42.98372" lon="0.55167">
        <ele>948.636</ele>
        <time>2011-04-10T11:58:52Z</time>
      </trkpt>
      <trkpt lat="42.98368" lon="0.55176">
        <ele>946.463</ele>
        <time>2011-04-10T11:59:11Z</time>
      </trkpt>
      <trkpt lat="42.98353" lon="0.55186">
        <ele>943.422</ele>
        <time>2011-04-10T11:59:29Z</time>
      </trkpt>
      <trkpt lat="42.98342" lon="0.55194">
        <ele>941.141</ele>
        <time>2011-04-10T11:59:49Z</time>
      </trkpt>
      <trkpt lat="42.98329" lon="0.55206">
        <ele>938.257</ele>
        <time>2011-04-10T12:00:09Z</time>
      </trkpt>
      <trkpt lat="42.98319" lon="0.55219">
        <ele>935.092</ele>
        <time>2011-04-10T12:00:32Z</time>
      </trkpt>
      <trkpt lat="42.98315" lon="0.55235">
        <ele>931.665</ele>
        <time>2011-04-10T12:00:48Z</time>
      </trkpt>
      <trkpt lat="42.98313" lon="0.55257">
        <ele>928.548</ele>
        <time>2011-04-10T12:01:03Z</time>
      </trkpt>
      <trkpt lat="42.98308" lon="0.55264">
        <ele>927.498</ele>
        <time>2011-04-10T12:01:24Z</time>
      </trkpt>
      <trkpt lat="42.98302" lon="0.55275">
        <ele>924.236</ele>
        <time>2011-04-10T12:01:37Z</time>
      </trkpt>
      <trkpt lat="42.98293" lon="0.55293">
        <ele>921.162</ele>
        <time>2011-04-10T12:01:51Z</time>
      </trkpt>
      <trkpt lat="42.98284" lon="0.55308">
        <ele>917.881</ele>
        <time>2011-04-10T12:02:06Z</time>
      </trkpt>
      <trkpt lat="42.98283" lon="0.5531">
        <ele>917.262</ele>
        <time>2011-04-10T12:02:10Z</time>
      </trkpt>
      <trkpt lat="42.98278" lon="0.55322">
        <ele>914.151</ele>
        <time>2011-04-10T12:02:28Z</time>
      </trkpt>
      <trkpt lat="42.98274" lon="0.55327">
        <ele>912.225</ele>
        <time>2011-04-10T12:02:40Z</time>
      </trkpt>
      <trkpt lat="42.98271" lon="0.55332">
        <ele>910.618</ele>
        <time>2011-04-10T12:02:45Z</time>
      </trkpt>
      <trkpt lat="42.98269" lon="0.55341">
        <ele>907.151</ele>
        <time>2011-04-10T12:02:57Z</time>
      </trkpt>
      <trkpt lat="42.98264" lon="0.55352">
        <ele>903.903</ele>
        <time>2011-04-10T12:03:09Z</time>
      </trkpt>
      <trkpt lat="42.98259" lon="0.55363">
        <ele>900.891</ele>
        <time>2011-04-10T12:03:22Z</time>
      </trkpt>
      <trkpt lat="42.98251" lon="0.55375">
        <ele>897.79</ele>
        <time>2011-04-10T12:03:35Z</time>
      </trkpt>
      <trkpt lat="42.98244" lon="0.55385">
        <ele>894.731</ele>
        <time>2011-04-10T12:03:48Z</time>
      </trkpt>
      <trkpt lat="42.9824" lon="0.55394">
        <ele>893.237</ele>
        <time>2011-04-10T12:03:56Z</time>
      </trkpt>
      <trkpt lat="42.9823" lon="0.55409">
        <ele>890.04</ele>
        <time>2011-04-10T12:04:15Z</time>
      </trkpt>
      <trkpt lat="42.98223" lon="0.55424">
        <ele>887.203</ele>
        <time>2011-04-10T12:04:33Z</time>
      </trkpt>
      <trkpt lat="42.9822" lon="0.55435">
        <ele>884.049</ele>
        <time>2011-04-10T12:04:44Z</time>
      </trkpt>
      <trkpt lat="42.98212" lon="0.55446">
        <ele>880.752</ele>
        <time>2011-04-10T12:04:59Z</time>
      </trkpt>
      <trkpt lat="42.98208" lon="0.55455">
        <ele>877.652</ele>
        <time>2011-04-10T12:05:10Z</time>
      </trkpt>
      <trkpt lat="42.98206" lon="0.55464">
        <ele>876.413</ele>
        <time>2011-04-10T12:05:17Z</time>
      </trkpt>
      <trkpt lat="42.982" lon="0.55471">
        <ele>874.681</ele>
        <time>2011-04-10T12:05:28Z</time>
      </trkpt>
      <trkpt lat="42.98195" lon="0.55485">
        <ele>871.199</ele>
        <time>2011-04-10T12:05:41Z</time>
      </trkpt>
      <trkpt lat="42.98188" lon="0.55499">
        <ele>868.197</ele>
        <time>2011-04-10T12:05:57Z</time>
      </trkpt>
      <trkpt lat="42.98188" lon="0.555">
        <ele>867.565</ele>
        <time>2011-04-10T12:06:11Z</time>
      </trkpt>
      <trkpt lat="42.98187" lon="0.555">
        <ele>866.737</ele>
        <time>2011-04-10T12:06:33Z</time>
      </trkpt>
      <trkpt lat="42.98186" lon="0.55502">
        <ele>866.367</ele>
        <time>2011-04-10T12:06:58Z</time>
      </trkpt>
      <trkpt lat="42.98184" lon="0.55506">
        <ele>866.304</ele>
        <time>2011-04-10T12:07:24Z</time>
      </trkpt>
      <trkpt lat="42.98182" lon="0.5551">
        <ele>866.737</ele>
        <time>2011-04-10T12:07:52Z</time>
      </trkpt>
      <trkpt lat="42.98173" lon="0.55531">
        <ele>863.92</ele>
        <time>2011-04-10T12:08:12Z</time>
      </trkpt>
      <trkpt lat="42.98174" lon="0.55547">
        <ele>860.357</ele>
        <time>2011-04-10T12:08:29Z</time>
      </trkpt>
      <trkpt lat="42.98174" lon="0.55548">
        <ele>860.563</ele>
        <time>2011-04-10T12:08:30Z</time>
      </trkpt>
      <trkpt lat="42.98167" lon="0.55564">
        <ele>857.447</ele>
        <time>2011-04-10T12:08:47Z</time>
      </trkpt>
      <trkpt lat="42.98165" lon="0.55574">
        <ele>854.31</ele>
        <time>2011-04-10T12:08:58Z</time>
      </trkpt>
      <trkpt lat="42.98161" lon="0.55587">
        <ele>851.14</ele>
        <time>2011-04-10T12:09:10Z</time>
      </trkpt>
      <trkpt lat="42.98155" lon="0.55601">
        <ele>847.857</ele>
        <time>2011-04-10T12:09:23Z</time>
      </trkpt>
      <trkpt lat="42.98152" lon="0.55615">
        <ele>844.844</ele>
        <time>2011-04-10T12:09:35Z</time>
      </trkpt>
      <trkpt lat="42.98147" lon="0.55629">
        <ele>841.785</ele>
        <time>2011-04-10T12:09:46Z</time>
      </trkpt>
      <trkpt lat="42.98137" lon="0.55651">
        <ele>838.107</ele>
        <time>2011-04-10T12:10:00Z</time>
      </trkpt>
      <trkpt lat="42.98134" lon="0.55662">
        <ele>837.772</ele>
        <time>2011-04-10T12:10:07Z</time>
      </trkpt>
      <trkpt lat="42.98131" lon="0.55684">
        <ele>833.595</ele>
        <time>2011-04-10T12:10:23Z</time>
      </trkpt>
      <trkpt lat="42.98129" lon="0.55694">
        <ele>830.333</ele>
        <time>2011-04-10T12:10:36Z</time>
      </trkpt>
      <trkpt lat="42.98129" lon="0.55702">
        <ele>829.117</ele>
        <time>2011-04-10T12:10:41Z</time>
      </trkpt>
      <trkpt lat="42.98124" lon="0.55716">
        <ele>825.949</ele>
        <time>2011-04-10T12:10:53Z</time>
      </trkpt>
      <trkpt lat="42.9812" lon="0.55736">
        <ele>822.815</ele>
        <time>2011-04-10T12:11:08Z</time>
      </trkpt>
      <trkpt lat="42.98115" lon="0.55755">
        <ele>819.981</ele>
        <time>2011-04-10T12:11:24Z</time>
      </trkpt>
      <trkpt lat="42.98112" lon="0.55779">
        <ele>816.749</ele>
        <time>2011-04-10T12:11:39Z</time>
      </trkpt>
      <trkpt lat="42.98105" lon="0.55802">
        <ele>813.529</ele>
        <time>2011-04-10T12:11:55Z</time>
      </trkpt>
      <trkpt lat="42.981" lon="0.5582">
        <ele>810.018</ele>
        <time>2011-04-10T12:12:09Z</time>
      </trkpt>
      <trkpt lat="42.98095" lon="0.55848">
        <ele>806.959</ele>
        <time>2011-04-10T12:12:28Z</time>
      </trkpt>
      <trkpt lat="42.98091" lon="0.55861">
        <ele>803.761</ele>
        <time>2011-04-10T12:12:43Z</time>
      </trkpt>
      <trkpt lat="42.98088" lon="0.55869">
        <ele>802.594</ele>
        <time>2011-04-10T12:12:50Z</time>
      </trkpt>
      <trkpt lat="42.98082" lon="0.55885">
        <ele>799.781</ele>
        <time>2011-04-10T12:13:03Z</time>
      </trkpt>
      <trkpt lat="42.98075" lon="0.55904">
        <ele>797.308</ele>
        <time>2011-04-10T12:13:20Z</time>
      </trkpt>
      <trkpt lat="42.98075" lon="0.55906">
        <ele>796.642</ele>
        <time>2011-04-10T12:13:22Z</time>
      </trkpt>
      <trkpt lat="42.98067" lon="0.55938">
        <ele>793.786</ele>
        <time>2011-04-10T12:13:41Z</time>
      </trkpt>
      <trkpt lat="42.98064" lon="0.55947">
        <ele>792.816</ele>
        <time>2011-04-10T12:13:48Z</time>
      </trkpt>
      <trkpt lat="42.98054" lon="0.55963">
        <ele>792.98</ele>
        <time>2011-04-10T12:14:08Z</time>
      </trkpt>
      <trkpt lat="42.98054" lon="0.55963">
        <ele>792.616</ele>
        <time>2011-04-10T12:14:35Z</time>
      </trkpt>
      <trkpt lat="42.98053" lon="0.5597">
        <ele>792.696</ele>
        <time>2011-04-10T12:14:55Z</time>
      </trkpt>
      <trkpt lat="42.9805" lon="0.55973">
        <ele>792.281</ele>
        <time>2011-04-10T12:15:36Z</time>
      </trkpt>
      <trkpt lat="42.98048" lon="0.55975">
        <ele>792.461</ele>
        <time>2011-04-10T12:16:01Z</time>
      </trkpt>
      <trkpt lat="42.98047" lon="0.55974">
        <ele>791.987</ele>
        <time>2011-04-10T12:16:35Z</time>
      </trkpt>
      <trkpt lat="42.98048" lon="0.55972">
        <ele>792.039</ele>
        <time>2011-04-10T12:17:04Z</time>
      </trkpt>
      <trkpt lat="42.98049" lon="0.55977">
        <ele>791.782</ele>
        <time>2011-04-10T12:17:24Z</time>
      </trkpt>
      <trkpt lat="42.98042" lon="0.55997">
        <ele>789.914</ele>
        <time>2011-04-10T12:17:45Z</time>
      </trkpt>
      <trkpt lat="42.98032" lon="0.56017">
        <ele>787.047</ele>
        <time>2011-04-10T12:18:05Z</time>
      </trkpt>
      <trkpt lat="42.98026" lon="0.56043">
        <ele>784.54</ele>
        <time>2011-04-10T12:18:22Z</time>
      </trkpt>
      <trkpt lat="42.98023" lon="0.56061">
        <ele>781.319</ele>
        <time>2011-04-10T12:18:35Z</time>
      </trkpt>
      <trkpt lat="42.98023" lon="0.56075">
        <ele>777.635</ele>
        <time>2011-04-10T12:18:48Z</time>
      </trkpt>
      <trkpt lat="42.98023" lon="0.56084">
        <ele>775.161</ele>
        <time>2011-04-10T12:18:59Z</time>
      </trkpt>
      <trkpt lat="42.98023" lon="0.56094">
        <ele>772.132</ele>
        <time>2011-04-10T12:19:10Z</time>
      </trkpt>
      <trkpt lat="42.98027" lon="0.56107">
        <ele>769.584</ele>
        <time>2011-04-10T12:19:20Z</time>
      </trkpt>
      <trkpt lat="42.9803" lon="0.56125">
        <ele>767.104</ele>
        <time>2011-04-10T12:19:32Z</time>
      </trkpt>
      <trkpt lat="42.98026" lon="0.56139">
        <ele>764.176</ele>
        <time>2011-04-10T12:19:43Z</time>
      </trkpt>
      <trkpt lat="42.98029" lon="0.56161">
        <ele>760.901</ele>
        <time>2011-04-10T12:19:59Z</time>
      </trkpt>
      <trkpt lat="42.98028" lon="0.56175">
        <ele>758.809</ele>
        <time>2011-04-10T12:20:11Z</time>
      </trkpt>
      <trkpt lat="42.98026" lon="0.56194">
        <ele>755.779</ele>
        <time>2011-04-10T12:20:24Z</time>
      </trkpt>
      <trkpt lat="42.98026" lon="0.56199">
        <ele>755.343</ele>
        <time>2011-04-10T12:20:28Z</time>
      </trkpt>
      <trkpt lat="42.98021" lon="0.56205">
        <ele>754.042</ele>
        <time>2011-04-10T12:20:34Z</time>
      </trkpt>
      <trkpt lat="42.9802" lon="0.56209">
        <ele>753.902</ele>
        <time>2011-04-10T12:20:36Z</time>
      </trkpt>
      <trkpt lat="42.98025" lon="0.56235">
        <ele>750.742</ele>
        <time>2011-04-10T12:20:53Z</time>
      </trkpt>
      <trkpt lat="42.98023" lon="0.56235">
        <ele>749.715</ele>
        <time>2011-04-10T12:21:13Z</time>
      </trkpt>
      <trkpt lat="42.98022" lon="0.56225">
        <ele>749.758</ele>
        <time>2011-04-10T12:22:18Z</time>
      </trkpt>
      <trkpt lat="42.9802" lon="0.56221">
        <ele>750.447</ele>
        <time>2011-04-10T12:22:50Z</time>
      </trkpt>
      <trkpt lat="42.98021" lon="0.5622">
        <ele>750.645</ele>
        <time>2011-04-10T12:22:52Z</time>
      </trkpt>
      <trkpt lat="42.98036" lon="0.56208">
        <ele>746.662</ele>
        <time>2011-04-10T12:23:04Z</time>
      </trkpt>
      <trkpt lat="42.98042" lon="0.56205">
        <ele>745.484</ele>
        <time>2011-04-10T12:23:08Z</time>
      </trkpt>
      <trkpt lat="42.9805" lon="0.562">
        <ele>743.514</ele>
        <time>2011-04-10T12:23:14Z</time>
      </trkpt>
      <trkpt lat="42.98063" lon="0.56195">
        <ele>740.119</ele>
        <time>2011-04-10T12:23:26Z</time>
      </trkpt>
      <trkpt lat="42.98064" lon="0.56195">
        <ele>739.816</ele>
        <time>2011-04-10T12:23:27Z</time>
      </trkpt>
      <trkpt lat="42.98072" lon="0.56189">
        <ele>736.668</ele>
        <time>2011-04-10T12:23:35Z</time>
      </trkpt>
      <trkpt lat="42.98072" lon="0.56187">
        <ele>736.464</ele>
        <time>2011-04-10T12:23:36Z</time>
      </trkpt>
      <trkpt lat="42.98081" lon="0.56178">
        <ele>733.359</ele>
        <time>2011-04-10T12:23:45Z</time>
      </trkpt>
      <trkpt lat="42.98084" lon="0.56177">
        <ele>731.94</ele>
        <time>2011-04-10T12:23:48Z</time>
      </trkpt>
      <trkpt lat="42.98091" lon="0.56169">
        <ele>728.761</ele>
        <time>2011-04-10T12:23:57Z</time>
      </trkpt>
      <trkpt lat="42.98098" lon="0.56161">
        <ele>726.486</ele>
        <time>2011-04-10T12:24:03Z</time>
      </trkpt>
      <trkpt lat="42.9811" lon="0.56145">
        <ele>723.454</ele>
        <time>2011-04-10T12:24:16Z</time>
      </trkpt>
      <trkpt lat="42.98123" lon="0.56137">
        <ele>720.386</ele>
        <time>2011-04-10T12:24:25Z</time>
      </trkpt>
      <trkpt lat="42.98136" lon="0.5612">
        <ele>717.229</ele>
        <time>2011-04-10T12:24:40Z</time>
      </trkpt>
      <trkpt lat="42.98143" lon="0.56113">
        <ele>714.095</ele>
        <time>2011-04-10T12:24:48Z</time>
      </trkpt>
      <trkpt lat="42.98157" lon="0.56103">
        <ele>711.065</ele>
        <time>2011-04-10T12:25:02Z</time>
      </trkpt>
      <trkpt lat="42.9817" lon="0.56086">
        <ele>708.045</ele>
        <time>2011-04-10T12:25:15Z</time>
      </trkpt>
      <trkpt lat="42.9818" lon="0.56077">
        <ele>706.662</ele>
        <time>2011-04-10T12:25:25Z</time>
      </trkpt>
      <trkpt lat="42.98186" lon="0.56068">
        <ele>705.099</ele>
        <time>2011-04-10T12:25:33Z</time>
      </trkpt>
      <trkpt lat="42.98207" lon="0.56043">
        <ele>702.85</ele>
        <time>2011-04-10T12:25:55Z</time>
      </trkpt>
      <trkpt lat="42.9821" lon="0.56039">
        <ele>701.063</ele>
        <time>2011-04-10T12:26:11Z</time>
      </trkpt>
      <trkpt lat="42.98216" lon="0.56035">
        <ele>699.54</ele>
        <time>2011-04-10T12:26:18Z</time>
      </trkpt>
      <trkpt lat="42.98234" lon="0.56012">
        <ele>696.752</ele>
        <time>2011-04-10T12:26:40Z</time>
      </trkpt>
      <trkpt lat="42.98253" lon="0.55984">
        <ele>694.316</ele>
        <time>2011-04-10T12:27:02Z</time>
      </trkpt>
      <trkpt lat="42.98271" lon="0.5596">
        <ele>692.175</ele>
        <time>2011-04-10T12:27:23Z</time>
      </trkpt>
      <trkpt lat="42.98276" lon="0.5595">
        <ele>690.223</ele>
        <time>2011-04-10T12:27:34Z</time>
      </trkpt>
      <trkpt lat="42.98294" lon="0.55929">
        <ele>687.972</ele>
        <time>2011-04-10T12:27:56Z</time>
      </trkpt>
      <trkpt lat="42.98304" lon="0.55917">
        <ele>686.358</ele>
        <time>2011-04-10T12:28:16Z</time>
      </trkpt>
      <trkpt lat="42.98309" lon="0.559">
        <ele>683.656</ele>
        <time>2011-04-10T12:28:37Z</time>
      </trkpt>
      <trkpt lat="42.9832" lon="0.559">
        <ele>680.53</ele>
        <time>2011-04-10T12:28:54Z</time>
      </trkpt>
      <trkpt lat="42.98316" lon="0.55915">
        <ele>677.321</ele>
        <time>2011-04-10T12:29:12Z</time>
      </trkpt>
      <trkpt lat="42.98316" lon="0.55931">
        <ele>674.534</ele>
        <time>2011-04-10T12:29:28Z</time>
      </trkpt>
      <trkpt lat="42.98319" lon="0.55942">
        <ele>670.964</ele>
        <time>2011-04-10T12:29:43Z</time>
      </trkpt>
      <trkpt lat="42.98314" lon="0.55961">
        <ele>669.264</ele>
        <time>2011-04-10T12:30:00Z</time>
      </trkpt>
      <trkpt lat="42.98312" lon="0.55973">
        <ele>666.096</ele>
        <time>2011-04-10T12:30:17Z</time>
      </trkpt>
      <trkpt lat="42.98312" lon="0.55987">
        <ele>663.036</ele>
        <time>2011-04-10T12:30:30Z</time>
      </trkpt>
      <trkpt lat="42.98306" lon="0.56">
        <ele>659.945</ele>
        <time>2011-04-10T12:30:48Z</time>
      </trkpt>
      <trkpt lat="42.98301" lon="0.5602">
        <ele>656.847</ele>
        <time>2011-04-10T12:31:08Z</time>
      </trkpt>
      <trkpt lat="42.98299" lon="0.56037">
        <ele>653.836</ele>
        <time>2011-04-10T12:31:27Z</time>
      </trkpt>
      <trkpt lat="42.98297" lon="0.56054">
        <ele>650.766</ele>
        <time>2011-04-10T12:31:44Z</time>
      </trkpt>
      <trkpt lat="42.9829" lon="0.5608">
        <ele>648.143</ele>
        <time>2011-04-10T12:32:08Z</time>
      </trkpt>
      <trkpt lat="42.9828" lon="0.56102">
        <ele>645.084</ele>
        <time>2011-04-10T12:32:33Z</time>
      </trkpt>
      <trkpt lat="42.98278" lon="0.56128">
        <ele>642.38</ele>
        <time>2011-04-10T12:32:53Z</time>
      </trkpt>
      <trkpt lat="42.98273" lon="0.56144">
        <ele>640.997</ele>
        <time>2011-04-10T12:33:06Z</time>
      </trkpt>
      <trkpt lat="42.98268" lon="0.56174">
        <ele>640.655</ele>
        <time>2011-04-10T12:33:24Z</time>
      </trkpt>
      <trkpt lat="42.98259" lon="0.56194">
        <ele>641.639</ele>
        <time>2011-04-10T12:33:42Z</time>
      </trkpt>
      <trkpt lat="42.98257" lon="0.56211">
        <ele>639.078</ele>
        <time>2011-04-10T12:34:00Z</time>
      </trkpt>
      <trkpt lat="42.98256" lon="0.56232">
        <ele>635.897</ele>
        <time>2011-04-10T12:34:16Z</time>
      </trkpt>
      <trkpt lat="42.98265" lon="0.56252">
        <ele>632.777</ele>
        <time>2011-04-10T12:34:37Z</time>
      </trkpt>
      <trkpt lat="42.98271" lon="0.56273">
        <ele>629.817</ele>
        <time>2011-04-10T12:35:02Z</time>
      </trkpt>
      <trkpt lat="42.98273" lon="0.56296">
        <ele>628.381</ele>
        <time>2011-04-10T12:35:22Z</time>
      </trkpt>
      <trkpt lat="42.98269" lon="0.5632">
        <ele>626.973</ele>
        <time>2011-04-10T12:35:45Z</time>
      </trkpt>
      <trkpt lat="42.98266" lon="0.56345">
        <ele>625.463</ele>
        <time>2011-04-10T12:36:12Z</time>
      </trkpt>
      <trkpt lat="42.98261" lon="0.56356">
        <ele>625.449</ele>
        <time>2011-04-10T12:36:21Z</time>
      </trkpt>
      <trkpt lat="42.98252" lon="0.56395">
        <ele>624.004</ele>
        <time>2011-04-10T12:36:49Z</time>
      </trkpt>
      <trkpt lat="42.98253" lon="0.56395">
        <ele>622.725</ele>
        <time>2011-04-10T12:36:51Z</time>
      </trkpt>
      <trkpt lat="42.98253" lon="0.564">
        <ele>622.147</ele>
        <time>2011-04-10T12:36:58Z</time>
      </trkpt>
      <trkpt lat="42.98257" lon="0.56405">
        <ele>622.513</ele>
        <time>2011-04-10T12:37:17Z</time>
      </trkpt>
      <trkpt lat="42.98257" lon="0.56406">
        <ele>623.07</ele>
        <time>2011-04-10T12:37:41Z</time>
      </trkpt>
      <trkpt lat="42.98257" lon="0.56409">
        <ele>621.721</ele>
        <time>2011-04-10T12:38:14Z</time>
      </trkpt>
      <trkpt lat="42.98277" lon="0.56415">
        <ele>621.275</ele>
        <time>2011-04-10T12:38:39Z</time>
      </trkpt>
      <trkpt lat="42.98291" lon="0.5641">
        <ele>621.649</ele>
        <time>2011-04-10T12:38:55Z</time>
      </trkpt>
      <trkpt lat="42.98305" lon="0.56391">
        <ele>623.1</ele>
        <time>2011-04-10T12:39:14Z</time>
      </trkpt>
      <trkpt lat="42.98315" lon="0.56389">
        <ele>624.098</ele>
        <time>2011-04-10T12:39:27Z</time>
      </trkpt>
      <trkpt lat="42.98338" lon="0.56372">
        <ele>622.167</ele>
        <time>2011-04-10T12:39:51Z</time>
      </trkpt>
      <trkpt lat="42.98347" lon="0.56366">
        <ele>621.227</ele>
        <time>2011-04-10T12:39:59Z</time>
      </trkpt>
      <trkpt lat="42.98371" lon="0.56354">
        <ele>621.09</ele>
        <time>2011-04-10T12:40:21Z</time>
      </trkpt>
      <trkpt lat="42.98399" lon="0.56341">
        <ele>621.872</ele>
        <time>2011-04-10T12:40:46Z</time>
      </trkpt>
      <trkpt lat="42.98422" lon="0.56326">
        <ele>620.574</ele>
        <time>2011-04-10T12:41:07Z</time>
      </trkpt>
      <trkpt lat="42.98446" lon="0.56311">
        <ele>619.661</ele>
        <time>2011-04-10T12:41:28Z</time>
      </trkpt>
      <trkpt lat="42.98462" lon="0.56295">
        <ele>617.248</ele>
        <time>2011-04-10T12:41:46Z</time>
      </trkpt>
      <trkpt lat="42.98493" lon="0.56289">
        <ele>617.217</ele>
        <time>2011-04-10T12:42:11Z</time>
      </trkpt>
      <trkpt lat="42.98514" lon="0.56298">
        <ele>615.308</ele>
        <time>2011-04-10T12:42:31Z</time>
      </trkpt>
      <trkpt lat="42.98544" lon="0.56299">
        <ele>612.391</ele>
        <time>2011-04-10T12:42:55Z</time>
      </trkpt>
      <trkpt lat="42.98564" lon="0.56293">
        <ele>611.986</ele>
        <time>2011-04-10T12:43:11Z</time>
      </trkpt>
      <trkpt lat="42.98593" lon="0.56289">
        <ele>611.042</ele>
        <time>2011-04-10T12:43:35Z</time>
      </trkpt>
      <trkpt lat="42.98615" lon="0.56295">
        <ele>611.154</ele>
        <time>2011-04-10T12:43:55Z</time>
      </trkpt>
      <trkpt lat="42.98621" lon="0.56299">
        <ele>610.728</ele>
        <time>2011-04-10T12:44:15Z</time>
      </trkpt>
      <trkpt lat="42.98622" lon="0.56298">
        <ele>609.874</ele>
        <time>2011-04-10T12:44:44Z</time>
      </trkpt>
      <trkpt lat="42.98626" lon="0.56298">
        <ele>610.727</ele>
        <time>2011-04-10T12:45:05Z</time>
      </trkpt>
      <trkpt lat="42.98635" lon="0.563">
        <ele>609.943</ele>
        <time>2011-04-10T12:45:27Z</time>
      </trkpt>
      <trkpt lat="42.98648" lon="0.56301">
        <ele>609.455</ele>
        <time>2011-04-10T12:45:47Z</time>
      </trkpt>
      <trkpt lat="42.98672" lon="0.56308">
        <ele>606.513</ele>
        <time>2011-04-10T12:46:17Z</time>
      </trkpt>
      <trkpt lat="42.9869" lon="0.56302">
        <ele>605.37</ele>
        <time>2011-04-10T12:46:36Z</time>
      </trkpt>
      <trkpt lat="42.98708" lon="0.56308">
        <ele>604.956</ele>
        <time>2011-04-10T12:46:57Z</time>
      </trkpt>
      <trkpt lat="42.98707" lon="0.56303">
        <ele>605.496</ele>
        <time>2011-04-10T12:47:09Z</time>
      </trkpt>
      <trkpt lat="42.98713" lon="0.56306">
        <ele>605.829</ele>
        <time>2011-04-10T12:47:26Z</time>
      </trkpt>
      <trkpt lat="42.98726" lon="0.56323">
        <ele>605.996</ele>
        <time>2011-04-10T12:47:45Z</time>
      </trkpt>
      <trkpt lat="42.98736" lon="0.56337">
        <ele>606.015</ele>
        <time>2011-04-10T12:48:00Z</time>
      </trkpt>
      <trkpt lat="42.98745" lon="0.56351">
        <ele>605.638</ele>
        <time>2011-04-10T12:48:15Z</time>
      </trkpt>
      <trkpt lat="42.98755" lon="0.56369">
        <ele>606.065</ele>
        <time>2011-04-10T12:48:33Z</time>
      </trkpt>
      <trkpt lat="42.98761" lon="0.56372">
        <ele>605.851</ele>
        <time>2011-04-10T12:48:38Z</time>
      </trkpt>
      <trkpt lat="42.9877" lon="0.5639">
        <ele>604.622</ele>
        <time>2011-04-10T12:48:58Z</time>
      </trkpt>
      <trkpt lat="42.98771" lon="0.56394">
        <ele>604.833</ele>
        <time>2011-04-10T12:49:16Z</time>
      </trkpt>
      <trkpt lat="42.98771" lon="0.56394">
        <ele>604.675</ele>
        <time>2011-04-10T12:49:20Z</time>
      </trkpt>
    </trkseg>
  </trk>
</gpx>